Time;durP1;ratioP1;P1;durP2;ratioP2;P2;SDS_P1;SDS_P2;PMS_P1;PMS_P2;Temp;Humidity;BMP_temperature;BMP_pressure;BME280_temperature;BME280_humidity;BME280_pressure;Samples;Min_cycle;Max_cycle;Signal;HPM_P1;HPM_P2
2021/06/24 00:02:16;;;;;;;;;;;;;;;24.36;63.47;100243.87;1759148;81;20963;-63
2021/06/24 00:04:43;;;;;;;42.10;8.38;;;;;;;24.34;63.45;100248.29;1755998;80;20411;-62
2021/06/24 00:07:11;;;;;;;45.52;8.83;;;;;;;24.34;63.58;100246.09;1762548;80;21176;-62
2021/06/24 00:09:38;;;;;;;39.78;9.70;;;;;;;24.34;63.28;100251.03;1754975;81;22256;-62
2021/06/24 00:12:06;;;;;;;43.10;9.53;;;;;;;24.34;63.27;100251.03;1756256;81;20856;-62
2021/06/24 00:14:34;;;;;;;51.53;9.68;;;;;;;24.35;63.19;100245.81;1757085;81;20939;-62
2021/06/24 00:17:02;;;;;;;55.83;11.68;;;;;;;24.36;63.04;100246.03;1756591;80;21030;-62
2021/06/24 00:19:29;;;;;;;41.33;7.37;;;;;;;24.37;62.85;100239.44;1734092;81;21199;-62
2021/06/24 00:21:56;;;;;;;48.95;9.88;;;;;;;24.36;62.59;100241.13;1757784;81;20903;-62
2021/06/24 00:24:23;;;;;;;48.83;8.80;;;;;;;24.36;62.21;100238.39;1756927;81;21482;-62
2021/06/24 00:26:52;;;;;;;45.90;7.90;;;;;;;24.31;62.21;100245.61;1754931;81;20970;-62
2021/06/24 00:29:20;;;;;;;47.25;8.03;;;;;;;24.24;62.23;100242.50;1754573;80;21097;-62
2021/06/24 00:31:48;;;;;;;43.68;8.23;;;;;;;24.17;62.37;100242.13;1755795;81;21905;-62
2021/06/24 00:34:16;;;;;;;41.75;8.53;;;;;;;24.12;62.73;100235.44;1756966;81;20925;-63
2021/06/24 00:36:44;;;;;;;42.00;8.37;;;;;;;24.08;63.03;100234.44;1757192;81;20892;-62
2021/06/24 00:39:11;;;;;;;42.55;8.13;;;;;;;24.05;63.18;100230.95;1757510;81;21485;-61
2021/06/24 00:41:39;;;;;;;38.78;7.92;;;;;;;23.99;63.42;100231.64;1754665;81;21050;-62
2021/06/24 00:44:06;;;;;;;37.28;8.30;;;;;;;23.95;63.42;100236.11;1738663;81;21815;-64
2021/06/24 00:46:34;;;;;;;43.95;11.10;;;;;;;23.92;63.53;100233.43;1756910;81;20944;-64
2021/06/24 00:49:03;;;;;;;41.77;8.25;;;;;;;23.90;63.64;100237.62;1755894;81;21000;-64
2021/06/24 00:51:30;;;;;;;;;;;;;;;23.91;63.95;100228.27;1756115;80;21520;-61
2021/06/24 00:53:58;;;;;;;40.40;8.67;;;;;;;23.91;64.10;100231.83;1734457;81;20120;-61
2021/06/24 00:56:29;;;;;;;52.00;10.35;;;;;;;23.91;64.04;100231.83;1735569;81;21482;-61
2021/06/24 00:59:00;;;;;;;31.48;7.28;;;;;;;23.94;63.88;100225.73;1719742;81;20935;-61
2021/06/24 01:01:28;;;;;;;38.05;8.45;;;;;;;23.94;63.50;100223.00;1740209;81;20951;-61
2021/06/24 01:03:55;;;;;;;46.50;8.33;;;;;;;23.94;62.84;100223.57;1736500;81;21372;-61
2021/06/24 01:06:23;;;;;;;37.85;6.83;;;;;;;23.95;62.83;100222.42;1737226;81;20891;-61
2021/06/24 01:08:51;;;;;;;38.55;8.93;;;;;;;23.98;61.93;100231.38;1737538;81;21193;-60
2021/06/24 01:11:20;;;;;;;37.70;6.78;;;;;;;23.99;61.68;100228.11;1736799;81;20970;-60
2021/06/24 01:13:48;;;;;;;31.40;6.85;;;;;;;23.98;61.40;100232.75;1735270;81;21029;-60
2021/06/24 01:16:15;;;;;;;37.42;8.43;;;;;;;23.97;61.20;100228.41;1703738;81;20927;-60
2021/06/24 01:18:43;;;;;;;31.07;7.60;;;;;;;23.97;60.90;100225.67;1717673;81;20896;-60
2021/06/24 01:21:11;;;;;;;34.18;7.12;;;;;;;23.99;60.60;100231.64;1736824;81;21222;-60
2021/06/24 01:23:42;;;;;;;29.55;7.17;;;;;;;23.99;60.85;100231.64;1739395;81;20959;-60
2021/06/24 01:26:09;;;;;;;35.75;6.97;;;;;;;23.99;60.75;100228.11;1694783;81;20951;-60
2021/06/24 01:28:38;;;;;;;29.40;5.40;;;;;;;23.97;60.03;100221.58;1736556;81;20970;-61
2021/06/24 01:31:06;;;;;;;36.38;7.47;;;;;;;23.94;59.65;100213.42;1735119;81;21762;-61
2021/06/24 01:33:33;;;;;;;31.12;6.15;;;;;;;23.92;59.57;100223.05;1729559;81;21123;-61
2021/06/24 01:36:03;;;;;;;30.23;7.42;;;;;;;23.91;60.07;100232.38;1737685;81;20935;-61
2021/06/24 01:38:32;;;;;;;26.57;6.62;;;;;;;23.89;59.89;100245.00;1740830;81;21454;-61
2021/06/24 01:41:01;;;;;;;34.63;7.50;;;;;;;23.87;59.17;100248.62;1731087;81;21036;-61
2021/06/24 01:43:30;;;;;;;28.87;6.92;;;;;;;23.83;58.57;100235.27;1738655;81;21042;-61
2021/06/24 01:45:58;;;;;;;22.20;5.90;;;;;;;23.79;59.06;100226.89;1740082;81;21097;-61
2021/06/24 01:48:25;;;;;;;36.03;6.75;;;;;;;23.79;59.85;100245.22;1735999;81;21180;-60
2021/06/24 01:50:53;;;;;;;38.92;6.15;;;;;;;23.78;59.52;100243.05;1737614;81;21022;-60
2021/06/24 01:53:21;;;;;;;30.32;7.05;;;;;;;23.72;58.79;100227.08;1720856;81;20908;-60
2021/06/24 01:55:48;;;;;;;32.10;7.43;;;;;;;23.67;59.07;100234.82;1737623;81;20971;-60
2021/06/24 01:58:21;;;;;;;;;;;;;;;23.64;59.09;100240.91;1738807;81;21220;-59
2021/06/24 02:01:04;;;;;;;32.60;6.20;;;;;;;23.57;59.37;100227.68;1738952;80;20109;-62
2021/06/24 02:03:37;;;;;;;27.65;5.72;;;;;;;23.49;59.87;100251.65;1740188;81;20999;-59
2021/06/24 02:06:05;;;;;;;35.58;7.00;;;;;;;23.47;59.94;100229.81;1740457;81;21046;-59
2021/06/24 02:08:35;;;;;;;28.95;7.15;;;;;;;23.48;60.21;100239.66;1738132;81;21049;-59
2021/06/24 02:11:05;;;;;;;30.95;6.47;;;;;;;23.52;60.44;100246.92;1733720;81;21177;-60
2021/06/24 02:13:33;;;;;;;;;;;;;;;23.56;60.18;100245.77;1737085;81;20939;-61
2021/06/24 02:16:01;;;;;;;30.97;6.17;;;;;;;23.58;59.99;100246.26;1741897;81;20418;-60
2021/06/24 02:18:29;;;;;;;42.62;6.72;;;;;;;23.61;60.03;100254.67;1740648;81;20979;-61
2021/06/24 02:20:57;;;;;;;36.33;6.47;;;;;;;23.66;60.36;100253.75;1737449;81;20986;-61
2021/06/24 02:23:26;;;;;;;23.55;6.47;;;;;;;23.69;60.20;100256.40;1736426;81;21084;-60
2021/06/24 02:25:55;;;;;;;29.25;7.30;;;;;;;23.72;60.36;100255.81;1737051;81;20963;-60
2021/06/24 02:28:24;;;;;;;31.07;7.08;;;;;;;23.75;60.23;100257.35;1734820;81;21816;-64
2021/06/24 02:30:53;;;;;;;20.37;4.92;;;;;;;23.78;60.58;100258.09;1735020;81;20951;-58
2021/06/24 02:33:21;;;;;;;33.87;5.80;;;;;;;23.82;60.48;100258.28;1705944;83;21051;-57
2021/06/24 02:35:58;;;;;;;46.83;5.95;;;;;;;23.87;59.97;100263.67;1698877;83;21136;-58
2021/06/24 02:38:27;;;;;;;24.90;6.05;;;;;;;23.90;59.63;100269.09;1700458;83;21537;-57
2021/06/24 02:40:58;;;;;;;28.55;6.75;;;;;;;23.92;59.65;100269.58;1701544;83;21398;-59
2021/06/24 02:43:27;;;;;;;28.80;7.15;;;;;;;23.97;59.99;100273.58;1698965;83;20974;-59
2021/06/24 02:45:56;;;;;;;19.80;6.25;;;;;;;24.03;60.31;100268.77;1700225;83;21031;-58
2021/06/24 02:48:25;;;;;;;27.65;6.62;;;;;;;24.07;60.40;100273.88;1690338;83;21169;-59
2021/06/24 02:50:52;;;;;;;36.43;7.30;;;;;;;24.10;60.89;100266.41;1700720;83;21033;-59
2021/06/24 02:53:20;;;;;;;34.48;7.60;;;;;;;24.11;61.16;100264.72;1707983;82;21070;-59
2021/06/24 02:55:47;;;;;;;40.17;8.53;;;;;;;24.14;61.25;100265.50;1708718;82;21043;-59
2021/06/24 02:58:16;;;;;;;35.60;8.93;;;;;;;24.18;62.25;100264.87;1706251;83;21039;-60
2021/06/24 03:00:54;;;;;;;36.00;8.30;;;;;;;24.17;62.84;100254.45;1702334;83;21805;-55
2021/06/24 03:03:29;;;;;;;38.35;10.45;;;;;;;24.12;63.32;100251.86;1677486;83;20943;-59
2021/06/24 03:06:08;;;;;;;26.65;7.80;;;;;;;24.05;63.98;100240.54;1706886;83;29006;-55
2021/06/24 03:08:35;;;;;;;26.95;7.40;;;;;;;24.00;63.76;100244.75;1705910;83;21010;-55
2021/06/24 03:11:03;;;;;;;29.25;7.53;;;;;;;23.96;63.05;100248.12;1703647;82;21450;-55
2021/06/24 03:13:32;;;;;;;26.35;6.37;;;;;;;23.96;62.68;100243.22;1706947;83;21981;-56
2021/06/24 03:16:03;;;;;;;28.38;7.35;;;;;;;23.95;62.20;100242.95;1705062;83;20947;-58
2021/06/24 03:18:32;;;;;;;30.65;6.60;;;;;;;23.93;61.60;100243.84;1704354;83;21446;-58
2021/06/24 03:21:00;;;;;;;29.63;7.22;;;;;;;23.91;61.55;100238.67;1706687;82;20991;-59
2021/06/24 03:23:27;;;;;;;36.58;7.92;;;;;;;23.90;61.86;100242.52;1707625;83;21015;-59
2021/06/24 03:25:55;;;;;;;27.37;7.12;;;;;;;23.89;62.62;100245.00;1706515;83;21159;-58
2021/06/24 03:28:24;;;;;;;36.10;7.65;;;;;;;23.90;62.45;100235.68;1709958;83;21105;-58
2021/06/24 03:31:01;;;;;;;35.47;8.53;;;;;;;23.89;62.44;100237.36;1697254;83;21038;-59
2021/06/24 03:33:29;;;;;;;32.17;7.70;;;;;;;23.87;62.70;100235.51;1708219;83;21054;-58
2021/06/24 03:35:56;;;;;;;31.95;7.60;;;;;;;23.85;62.71;100237.70;1691107;83;21133;-58
2021/06/24 03:38:24;;;;;;;36.25;7.55;;;;;;;23.82;62.93;100228.17;1704520;83;21139;-58
2021/06/24 03:40:53;;;;;;;44.53;7.47;;;;;;;23.80;62.98;100225.75;1705364;83;21026;-59
2021/06/24 03:43:20;;;;;;;28.62;8.90;;;;;;;23.81;63.10;100225.21;1710089;83;20967;-58
2021/06/24 03:45:48;;;;;;;34.35;8.70;;;;;;;23.79;63.16;100229.63;1706860;83;21023;-58
2021/06/24 03:48:15;;;;;;;39.70;8.63;;;;;;;23.80;63.43;100223.58;1701858;83;21074;-57
2021/06/24 03:50:43;;;;;;;29.57;7.30;;;;;;;23.82;63.52;100226.80;1706443;83;22033;-58
2021/06/24 03:53:12;;;;;;;27.17;7.15;;;;;;;23.86;63.54;100222.94;1719194;82;20997;-59
2021/06/24 03:55:42;;;;;;;;;;;;;;;23.94;63.38;100226.30;1726635;82;20931;-59
2021/06/24 03:58:15;;;;;;;33.23;8.90;;;;;;;24.00;63.31;100226.96;1690655;84;20107;-58
2021/06/24 04:00:45;;;;;;;44.42;7.72;;;;;;;24.05;63.31;100231.75;1721846;82;20970;-59
2021/06/24 04:03:15;;;;;;;38.33;7.72;;;;;;;24.09;63.31;100238.80;1722171;82;22011;-59
2021/06/24 04:05:57;;;;;;;30.75;6.90;;;;;;;24.12;63.68;100234.86;1720780;82;21166;-59
2021/06/24 04:08:24;;;;;;;39.40;8.53;;;;;;;24.17;63.28;100241.34;1721362;82;21009;-59
2021/06/24 04:10:52;;;;;;;30.37;7.50;;;;;;;24.21;63.23;100246.44;1722011;82;20993;-57
2021/06/24 04:13:20;;;;;;;38.88;8.63;;;;;;;24.23;62.88;100242.82;1724820;82;20926;-58
2021/06/24 04:15:49;;;;;;;;;;;;;;;24.25;62.34;100244.13;1723000;82;21135;-58
2021/06/24 04:18:16;;;;;;;33.80;8.13;;;;;;;24.25;62.27;100244.13;1727569;82;20463;-59
2021/06/24 04:20:45;;;;;;;32.60;8.35;;;;;;;24.27;62.53;100241.88;1719934;82;21723;-60
2021/06/24 04:23:12;;;;;;;35.00;8.53;;;;;;;24.33;62.36;100245.30;1723442;82;20942;-60
2021/06/24 04:25:49;;;;;;;34.95;7.92;;;;;;;24.38;62.32;100241.06;1723817;82;21005;-60
2021/06/24 04:28:16;;;;;;;39.50;8.08;;;;;;;24.44;62.38;100239.80;1723456;82;21824;-60
2021/06/24 04:30:45;;;;;;;37.45;8.68;;;;;;;24.49;61.80;100239.66;1718491;82;21535;-60
2021/06/24 04:33:13;;;;;;;42.00;7.63;;;;;;;24.52;61.42;100237.42;1723291;82;21558;-60
2021/06/24 04:35:42;;;;;;;38.88;7.53;;;;;;;24.54;61.26;100237.91;1722705;82;21691;-61
2021/06/24 04:38:14;;;;;;;29.40;7.37;;;;;;;24.56;61.46;100237.84;1722484;82;21035;-61
2021/06/24 04:40:43;;;;;;;34.78;7.45;;;;;;;24.61;61.40;100236.92;1715334;82;21165;-61
2021/06/24 04:43:10;;;;;;;32.53;8.98;;;;;;;24.69;62.10;100239.45;1727593;82;20934;-61
2021/06/24 04:45:39;;;;;;;37.30;8.88;;;;;;;24.77;61.89;100241.42;1729518;82;20902;-60
2021/06/24 04:48:08;;;;;;;46.35;8.65;;;;;;;24.83;61.33;100238.20;1723670;82;21037;-60
2021/06/24 04:50:36;;;;;;;42.35;8.75;;;;;;;24.91;61.33;100234.45;1723865;82;21068;-60
2021/06/24 04:53:04;;;;;;;44.27;8.70;;;;;;;24.99;61.40;100237.79;1726568;82;21132;-60
2021/06/24 04:55:38;;;;;;;37.60;8.33;;;;;;;25.08;61.84;100236.44;1767397;80;20991;-60
2021/06/24 04:58:02;;;;;;;33.33;8.63;;;;;;;25.18;61.58;100235.56;1765789;80;21062;-61
2021/06/24 05:00:36;;;;;;;33.63;7.83;;;;;;;25.29;61.25;100235.27;1764370;80;21065;-60
2021/06/24 05:03:12;;;;;;;30.15;7.40;;;;;;;25.42;60.63;100238.45;1764062;80;20994;-59
2021/06/24 05:05:48;;;;;;;33.55;8.13;;;;;;;25.54;59.68;100237.81;1764371;80;22942;-61
2021/06/24 05:08:17;;;;;;;33.10;7.12;;;;;;;25.66;59.68;100237.99;1766475;80;20876;-60
2021/06/24 05:10:45;;;;;;;31.65;7.50;;;;;;;25.76;59.18;100238.22;1765490;80;21041;-61
2021/06/24 05:13:12;;;;;;;26.45;7.42;;;;;;;25.86;58.98;100231.02;1762929;80;20884;-60
2021/06/24 05:15:43;;;;;;;25.45;6.00;;;;;;;25.97;57.98;100238.38;1765262;80;20920;-60
2021/06/24 05:18:12;;;;;;;30.02;6.05;;;;;;;26.05;57.62;100236.77;1762187;80;21192;-61
2021/06/24 05:20:39;;;;;;;31.75;6.37;;;;;;;26.13;57.38;100231.81;1765762;80;20958;-61
2021/06/24 05:23:07;;;;;;;28.23;5.45;;;;;;;26.20;56.78;100233.50;1767686;80;20935;-62
2021/06/24 05:25:37;;;;;;;25.62;5.83;;;;;;;26.26;56.65;100226.47;1763460;80;21022;-62
2021/06/24 05:28:04;;;;;;;29.50;6.20;;;;;;;26.35;56.34;100232.19;1734518;80;21494;-61
2021/06/24 05:30:31;;;;;;;28.57;6.22;;;;;;;26.44;55.15;100234.88;1766255;80;21096;-60
2021/06/24 05:32:58;;;;;;;25.48;6.15;;;;;;;26.52;54.99;100236.01;1768179;80;20903;-61
2021/06/24 05:35:27;;;;;;;31.62;6.50;;;;;;;26.58;55.09;100236.85;1766947;80;20955;-61
2021/06/24 05:37:54;;;;;;;30.48;6.47;;;;;;;26.65;54.90;100241.85;1768568;80;21090;-61
2021/06/24 05:40:22;;;;;;;28.87;5.58;;;;;;;26.72;54.63;100246.85;1764746;80;21011;-60
2021/06/24 05:42:50;;;;;;;21.60;6.37;;;;;;;26.79;54.81;100249.10;1773117;79;21116;-60
2021/06/24 05:45:25;;;;;;;28.27;6.37;;;;;;;26.86;54.99;100249.39;1771662;79;21037;-60
2021/06/24 05:47:48;;;;;;;31.87;6.60;;;;;;;26.95;55.75;100243.84;1768355;79;21627;-60
2021/06/24 05:50:15;;;;;;;16.12;5.65;;;;;;;27.07;55.05;100241.98;1776999;79;21456;-60
2021/06/24 05:52:43;;;;;;;18.73;5.62;;;;;;;27.15;54.16;100243.09;1774765;79;21538;-60
2021/06/24 05:55:12;;;;;;;35.80;6.50;;;;;;;27.23;54.51;100243.58;1768360;79;21171;-60
2021/06/24 05:57:39;;;;;;;30.05;7.00;;;;;;;27.35;53.07;100257.22;1768080;80;20991;-60
2021/06/24 06:00:07;;;;;;;28.07;5.35;;;;;;;27.40;51.37;100252.88;1763216;80;21009;-60
2021/06/24 06:02:36;;;;;;;30.88;6.12;;;;;;;27.45;52.71;100245.23;1767285;80;21509;-60
2021/06/24 06:05:04;;;;;;;28.45;6.37;;;;;;;27.52;51.99;100243.34;1770128;80;20999;-60
2021/06/24 06:07:31;;;;;;;27.77;6.62;;;;;;;27.62;51.57;100247.64;1764909;80;21141;-60
2021/06/24 06:10:00;;;;;;;28.10;7.53;;;;;;;27.70;50.72;100247.33;1761232;80;20979;-60
2021/06/24 06:12:28;;;;;;;24.92;5.60;;;;;;;27.75;51.70;100238.84;1765801;80;20994;-60
2021/06/24 06:14:56;;;;;;;29.72;5.87;;;;;;;27.84;52.21;100235.47;1761283;80;20892;-60
2021/06/24 06:17:23;;;;;;;19.07;5.55;;;;;;;27.95;51.20;100231.13;1767113;80;20991;-60
2021/06/24 06:19:50;;;;;;;30.72;6.83;;;;;;;28.04;50.71;100224.77;1763972;80;21131;-60
2021/06/24 06:22:18;;;;;;;24.98;6.60;;;;;;;28.07;51.12;100220.75;1764849;80;22038;-60
2021/06/24 06:24:45;;;;;;;34.45;7.12;;;;;;;28.16;51.55;100219.86;1764938;80;21399;-60
2021/06/24 06:27:12;;;;;;;22.30;6.70;;;;;;;28.22;51.37;100219.29;1766098;79;20912;-60
2021/06/24 06:29:39;;;;;;;20.52;7.22;;;;;;;28.29;51.32;100214.61;1766135;79;21470;-59
2021/06/24 06:32:06;;;;;;;26.00;6.20;;;;;;;28.40;51.48;100210.83;1768474;80;21088;-60
2021/06/24 06:34:34;;;;;;;16.80;5.80;;;;;;;28.52;51.11;100209.47;1766252;80;28672;-60
2021/06/24 06:37:01;;;;;;;25.85;6.70;;;;;;;28.65;50.75;100204.78;1766242;79;21026;-60
2021/06/24 06:39:28;;;;;;;20.10;6.12;;;;;;;28.75;50.65;100204.91;1763018;80;21509;-60
2021/06/24 06:41:55;;;;;;;27.40;6.20;;;;;;;28.84;50.13;100209.72;1763359;80;20943;-60
2021/06/24 06:44:23;;;;;;;30.75;6.10;;;;;;;28.93;50.19;100214.56;1767820;79;21161;-60
2021/06/24 06:46:50;;;;;;;27.65;6.12;;;;;;;29.01;49.87;100210.85;1767956;79;20999;-59
2021/06/24 06:49:17;;;;;;;23.18;5.67;;;;;;;29.11;49.15;100219.23;1765414;80;21351;-59
2021/06/24 06:51:44;;;;;;;29.45;8.15;;;;;;;29.17;49.12;100220.60;1767315;80;21002;-60
2021/06/24 06:54:11;;;;;;;21.62;5.33;;;;;;;29.28;49.81;100222.33;1764687;80;20887;-59
2021/06/24 06:56:39;;;;;;;24.05;6.45;;;;;;;29.40;49.30;100221.48;1765780;80;22361;-59
2021/06/24 06:59:06;;;;;;;22.80;6.03;;;;;;;29.49;48.83;100218.03;1768456;79;20978;-60
2021/06/24 07:01:33;;;;;;;22.90;6.20;;;;;;;29.54;47.94;100221.12;1769200;80;21657;-60
2021/06/24 07:04:00;;;;;;;25.35;7.00;;;;;;;29.52;47.99;100228.95;1763555;80;21005;-60
2021/06/24 07:06:28;;;;;;;24.72;5.97;;;;;;;29.53;48.15;100226.41;1764802;80;21127;-60
2021/06/24 07:08:57;;;;;;;17.65;5.33;;;;;;;29.56;47.36;100224.91;1768448;80;20939;-60
2021/06/24 07:11:24;;;;;;;23.95;5.45;;;;;;;29.57;48.06;100234.81;1765094;80;21013;-60
2021/06/24 07:13:52;;;;;;;27.58;6.87;;;;;;;29.54;47.59;100228.81;1765636;80;21018;-60
2021/06/24 07:16:19;;;;;;;25.80;6.60;;;;;;;29.51;47.71;100234.25;1767576;80;21485;-60
2021/06/24 07:18:47;;;;;;;21.03;6.03;;;;;;;29.46;48.13;100229.78;1763775;80;21536;-60
2021/06/24 07:21:14;;;;;;;23.02;6.08;;;;;;;29.42;48.05;100230.83;1764784;80;21644;-60
2021/06/24 07:23:41;;;;;;;22.75;6.03;;;;;;;29.38;48.31;100229.91;1764119;80;21524;-60
2021/06/24 07:26:08;;;;;;;20.45;6.30;;;;;;;29.34;48.78;100226.48;1764472;80;21011;-60
2021/06/24 07:28:35;;;;;;;23.65;5.55;;;;;;;29.38;48.93;100232.67;1768761;80;20920;-60
2021/06/24 07:31:03;;;;;;;24.37;5.53;;;;;;;29.41;49.82;100230.01;1769247;80;20985;-60
2021/06/24 07:33:30;;;;;;;23.12;5.92;;;;;;;29.47;49.17;100227.81;1764148;80;21229;-60
2021/06/24 07:35:58;;;;;;;23.18;5.33;;;;;;;29.54;48.93;100234.34;1768685;80;21540;-60
2021/06/24 07:38:25;;;;;;;24.57;6.60;;;;;;;29.63;48.82;100235.58;1768097;80;21090;-60
2021/06/24 07:40:53;;;;;;;20.37;5.70;;;;;;;29.72;48.44;100240.95;1763187;80;21033;-60
2021/06/24 07:43:20;;;;;;;20.43;6.53;;;;;;;29.80;48.73;100237.25;1769499;80;21062;-60
2021/06/24 07:45:47;;;;;;;27.25;6.50;;;;;;;29.87;48.30;100240.24;1769332;80;21865;-59
2021/06/24 07:48:15;;;;;;;36.17;7.30;;;;;;;29.95;48.39;100239.06;1765044;80;20848;-60
2021/06/24 07:50:42;;;;;;;;;;;;;;;29.99;49.09;100229.70;1773553;79;21066;-60
2021/06/24 07:53:09;;;;;;;38.50;7.25;;;;;;;30.11;48.29;100241.83;1764875;80;20420;-60
2021/06/24 07:55:38;;;;;;;29.90;6.25;;;;;;;30.15;47.45;100233.89;1764725;80;20947;-60
2021/06/24 07:58:06;;;;;;;16.30;5.87;;;;;;;30.19;46.98;100233.37;1762835;80;21183;-61
2021/06/24 08:00:36;;;;;;;22.77;4.87;;;;;;;30.21;47.83;100228.31;1736278;80;20974;-59
2021/06/24 08:03:03;;;;;;;;;;;;;;;30.26;48.27;100226.45;1768059;80;21000;-60
2021/06/24 08:05:30;;;;;;;21.35;5.10;;;;;;;30.31;47.96;100217.30;1762825;80;20440;-59
2021/06/24 08:07:57;;;;;;;24.50;6.70;;;;;;;30.38;47.59;100207.80;1766787;80;21062;-59
2021/06/24 08:10:24;;;;;;;22.62;5.30;;;;;;;30.44;47.13;100215.88;1765404;80;21126;-61
2021/06/24 08:12:51;;;;;;;19.50;4.83;;;;;;;30.44;46.71;100216.67;1764500;80;20963;-60
2021/06/24 08:15:21;;;;;;;20.90;4.65;;;;;;;30.44;47.11;100213.91;1765496;80;21497;-60
2021/06/24 08:17:48;;;;;;;19.20;4.97;;;;;;;30.47;47.44;100218.72;1767508;80;21319;-60
2021/06/24 08:20:15;;;;;;;28.30;5.55;;;;;;;30.52;47.89;100218.47;1765371;80;21062;-60
2021/06/24 08:22:42;;;;;;;;;;;;;;;30.60;45.70;100213.91;1770538;80;21137;-59
2021/06/24 08:25:11;;;;;;;20.35;4.37;;;;;;;30.65;46.15;100205.31;1763814;80;20166;-59
2021/06/24 08:27:39;;;;;;;20.32;5.17;;;;;;;30.69;47.33;100199.89;1762688;80;20974;-60
2021/06/24 08:30:07;;;;;;;17.65;5.22;;;;;;;30.74;46.66;100202.37;1764306;80;20979;-60
2021/06/24 08:32:35;;;;;;;18.00;5.67;;;;;;;30.77;46.40;100204.41;1765343;80;21058;-60
2021/06/24 08:35:02;;;;;;;16.47;4.63;;;;;;;30.78;46.59;100193.58;1763394;80;21952;-60
2021/06/24 08:37:29;;;;;;;21.53;5.00;;;;;;;30.79;45.73;100195.19;1768836;79;20999;-60
2021/06/24 08:39:56;;;;;;;10.45;3.72;;;;;;;30.78;44.83;100198.31;1765043;80;20987;-60
2021/06/24 08:42:23;;;;;;;14.60;4.60;;;;;;;30.75;45.04;100199.83;1765330;80;21051;-59
2021/06/24 08:44:49;;;;;;;15.03;4.20;;;;;;;30.77;45.18;100213.30;1766005;80;20979;-60
2021/06/24 08:47:17;;;;;;;13.97;4.57;;;;;;;30.81;45.71;100211.42;1764814;80;21170;-59
2021/06/24 08:49:45;;;;;;;23.10;4.25;;;;;;;30.86;45.69;100214.72;1735042;80;37856;-62
2021/06/24 08:52:13;;;;;;;22.15;4.80;;;;;;;30.91;46.43;100215.81;1774477;79;20936;-61
2021/06/24 08:54:40;;;;;;;20.55;5.70;;;;;;;30.99;45.51;100210.45;1772743;79;27332;-61
2021/06/24 08:57:07;;;;;;;19.20;4.85;;;;;;;31.02;45.22;100207.80;1785310;78;21566;-62
2021/06/24 08:59:35;;;;;;;17.63;4.37;;;;;;;31.03;44.49;100205.23;1784206;79;22064;-62
2021/06/24 09:02:02;;;;;;;17.40;3.90;;;;;;;31.01;44.25;100204.81;1780067;80;21527;-63
2021/06/24 09:04:30;;;;;;;16.60;4.47;;;;;;;30.98;44.76;100202.73;1776346;79;20989;-62
2021/06/24 09:07:12;;;;;;;21.05;4.58;;;;;;;30.97;44.24;100205.27;1784809;79;20997;-63
2021/06/24 09:09:52;;;;;;;21.45;4.45;;;;;;;30.95;44.11;100202.08;1781829;79;21155;-63
2021/06/24 09:12:19;;;;;;;17.42;5.15;;;;;;;30.95;45.79;100218.68;1781931;79;21143;-60
2021/06/24 09:14:49;;;;;;;13.30;4.25;;;;;;;30.97;44.59;100217.73;1778729;80;21511;-59
2021/06/24 09:17:38;;;;;;;15.35;4.28;;;;;;;31.01;44.59;100217.86;1781929;79;20943;-58
2021/06/24 09:20:29;;;;;;;16.27;4.35;;;;;;;31.03;44.66;100218.28;1783053;80;21009;-61
2021/06/24 09:23:17;;;;;;;12.00;4.72;;;;;;;31.06;44.69;100213.41;1785197;78;21023;-61
2021/06/24 09:25:48;;;;;;;22.60;5.17;;;;;;;31.09;43.63;100210.70;1770052;79;21477;-60
2021/06/24 09:28:15;;;;;;;18.85;4.45;;;;;;;31.13;43.18;100207.24;1782646;79;21489;-60
2021/06/24 09:30:44;;;;;;;10.45;4.00;;;;;;;31.14;44.52;100209.65;1777656;80;20943;-60
2021/06/24 09:33:17;;;;;;;12.05;4.25;;;;;;;31.15;43.37;100209.84;1781683;78;20945;-61
2021/06/24 09:35:57;;;;;;;15.85;4.17;;;;;;;31.18;43.63;100211.09;1778114;80;21061;-61
2021/06/24 09:38:24;;;;;;;27.00;4.58;;;;;;;31.17;43.67;100206.16;1779323;80;21151;-60
2021/06/24 09:40:53;;;;;;;13.20;4.47;;;;;;;31.16;43.92;100199.59;1778426;80;21557;-61
2021/06/24 09:43:28;;;;;;;14.18;3.77;;;;;;;31.14;44.33;100206.87;1779596;80;20985;-61
2021/06/24 09:46:11;;;;;;;15.93;4.83;;;;;;;31.13;44.83;100198.94;1785548;79;21056;-61
2021/06/24 09:48:45;;;;;;;16.90;3.98;;;;;;;31.11;44.75;100197.92;1778518;80;20985;-61
2021/06/24 09:51:21;;;;;;;13.13;4.28;;;;;;;31.11;44.93;100200.69;1779917;80;21173;-60
2021/06/24 09:54:15;;;;;;;17.82;3.77;;;;;;;31.11;45.12;100206.22;1787079;78;21055;-61
2021/06/24 09:56:54;;;;;;;12.73;4.12;;;;;;;31.14;45.63;100206.87;1773653;80;20998;-61
2021/06/24 09:59:33;;;;;;;20.35;4.12;;;;;;;31.15;44.67;100200.16;1783587;80;20958;-61
2021/06/24 10:02:11;;;;;;;20.50;3.87;;;;;;;31.14;44.54;100194.98;1773607;80;21527;-62
2021/06/24 10:04:44;;;;;;;13.68;4.40;;;;;;;31.12;44.45;100200.09;1783206;80;21121;-61
2021/06/24 10:07:13;;;;;;;19.57;4.45;;;;;;;31.08;44.80;100195.28;1781154;80;20969;-61
2021/06/24 10:09:42;;;;;;;20.35;4.47;;;;;;;31.07;44.84;100197.03;1783361;80;21496;-61
2021/06/24 10:12:18;;;;;;;19.90;4.17;;;;;;;31.05;45.42;100203.49;1780960;78;20947;-61
2021/06/24 10:14:47;;;;;;;16.42;3.58;;;;;;;31.04;45.95;100199.14;1779891;80;20954;-61
2021/06/24 10:17:13;;;;;;;16.75;4.65;;;;;;;31.05;45.93;100196.58;1777989;80;21145;-61
2021/06/24 10:19:44;;;;;;;17.48;4.05;;;;;;;31.05;45.17;100189.66;1777718;79;21029;-61
2021/06/24 10:22:27;;;;;;;24.43;4.35;;;;;;;31.07;45.13;100198.41;1778114;79;21074;-61
2021/06/24 10:25:03;;;;;;;12.68;3.37;;;;;;;31.07;45.35;100192.29;1762357;80;21509;-62
2021/06/24 10:27:32;;;;;;;16.15;3.83;;;;;;;31.10;45.36;100190.77;1781169;80;21001;-63
2021/06/24 10:30:14;;;;;;;22.32;4.53;;;;;;;31.11;45.76;100184.08;1781128;80;21154;-63
2021/06/24 10:33:03;;;;;;;19.02;4.55;;;;;;;31.13;45.73;100185.89;1781142;78;21027;-61
2021/06/24 10:35:33;;;;;;;18.62;3.92;;;;;;;31.14;46.04;100183.36;1753611;80;21029;-60
2021/06/24 10:38:01;;;;;;;19.75;4.75;;;;;;;31.15;46.28;100193.23;1780084;80;21006;-60
2021/06/24 10:40:36;;;;;;;23.30;3.97;;;;;;;31.16;45.63;100191.30;1778501;80;21014;-60
2021/06/24 10:43:13;;;;;;;17.92;4.47;;;;;;;31.12;46.35;100195.34;1780175;80;21414;-58
2021/06/24 10:45:43;;;;;;;18.12;4.87;;;;;;;31.09;46.09;100193.31;1785728;79;20978;-59
2021/06/24 10:48:29;;;;;;;24.25;4.20;;;;;;;31.08;45.45;100188.93;1779064;80;20934;-59
2021/06/24 10:51:07;;;;;;;18.12;4.12;;;;;;;31.06;45.62;100192.06;1779277;80;21046;-58
2021/06/24 10:53:40;;;;;;;17.40;4.10;;;;;;;31.07;45.48;100192.29;1781813;80;21097;-59
2021/06/24 10:56:29;;;;;;;17.05;4.35;;;;;;;31.08;45.15;100193.08;1768595;80;22358;-64
2021/06/24 10:58:58;;;;;;;12.85;3.90;;;;;;;31.06;45.99;100194.03;1768847;79;20958;-58
2021/06/24 11:01:41;;;;;;;18.20;4.30;;;;;;;31.06;45.94;100190.67;1767763;79;21022;-60
2021/06/24 11:04:26;;;;;;;27.77;4.90;;;;;;;31.08;44.90;100191.14;1767530;80;20927;-59
2021/06/24 11:06:53;;;;;;;20.05;4.20;;;;;;;31.10;44.61;100192.16;1764741;80;21050;-59
2021/06/24 11:09:20;;;;;;;18.35;4.97;;;;;;;31.12;43.50;100191.80;1770041;79;21149;-59
2021/06/24 11:11:48;;;;;;;18.62;4.22;;;;;;;31.11;42.22;100197.92;1771782;80;21030;-59
2021/06/24 11:14:38;;;;;;;13.65;4.10;;;;;;;31.11;42.28;100193.77;1770708;79;20932;-60
2021/06/24 11:17:27;;;;;;;22.20;4.20;;;;;;;31.11;42.56;100189.61;1746396;80;21034;-59
2021/06/24 11:20:17;;;;;;;20.02;4.62;;;;;;;31.13;41.66;100201.11;1767212;80;21351;-59
2021/06/24 11:22:51;;;;;;;19.77;4.22;;;;;;;31.11;42.48;100196.53;1769664;79;21067;-60
2021/06/24 11:25:18;;;;;;;20.37;4.58;;;;;;;31.08;42.67;100206.92;1767513;80;20940;-60
2021/06/24 11:27:45;;;;;;;27.40;4.70;;;;;;;31.06;43.65;100202.34;1768947;80;21473;-60
2021/06/24 11:30:13;;;;;;;29.63;4.77;;;;;;;31.05;43.84;100197.39;1767207;80;21505;-60
2021/06/24 11:32:44;;;;;;;;;;;;;;;31.05;43.00;100213.18;1768953;80;21521;-60